sensor_id;sensor_type;location;lat;lon;timestamp;pressure;altitude;pressure_sealevel;temperature;humidity
9077;BME280;4574;51.072;17.174;2024-02-23T00:01:18;97852.28;;;10.32;100.00
9077;BME280;4574;51.072;17.174;2024-02-23T00:03:48;97845.38;;;10.31;100.00
9077;BME280;4574;51.072;17.174;2024-02-23T00:06:17;97839.88;;;10.26;100.00
9077;BME280;4574;51.072;17.174;2024-02-23T00:08:45;97846.16;;;10.32;100.00
9077;BME280;4574;51.072;17.174;2024-02-23T00:11:14;97846.59;;;10.35;100.00
9077;BME280;4574;51.072;17.174;2024-02-23T00:13:43;97833.97;;;10.37;100.00
9077;BME280;4574;51.072;17.174;2024-02-23T00:16:11;97834.78;;;10.31;100.00
9077;BME280;4574;51.072;17.174;2024-02-23T00:18:40;97844.75;;;10.42;100.00
9077;BME280;4574;51.072;17.174;2024-02-23T00:21:10;97840.06;;;10.44;100.00
9077;BME280;4574;51.072;17.174;2024-02-23T00:23:38;97850.25;;;10.47;100.00
9077;BME280;4574;51.072;17.174;2024-02-23T00:26:07;97852.06;;;10.53;100.00
9077;BME280;4574;51.072;17.174;2024-02-23T00:28:35;97846.78;;;10.60;100.00
9077;BME280;4574;51.072;17.174;2024-02-23T00:31:04;97853.28;;;10.63;100.00
9077;BME280;4574;51.072;17.174;2024-02-23T00:33:32;97847.16;;;10.69;100.00
9077;BME280;4574;51.072;17.174;2024-02-23T00:36:02;97853.06;;;10.71;100.00
9077;BME280;4574;51.072;17.174;2024-02-23T00:38:32;97844.13;;;10.72;100.00
9077;BME280;4574;51.072;17.174;2024-02-23T00:41:00;97856.13;;;10.81;100.00
9077;BME280;4574;51.072;17.174;2024-02-23T00:43:29;97856.72;;;10.83;100.00
9077;BME280;4574;51.072;17.174;2024-02-23T00:45:58;97854.88;;;10.90;100.00
9077;BME280;4574;51.072;17.174;2024-02-23T00:48:26;97862.03;;;10.90;100.00
9077;BME280;4574;51.072;17.174;2024-02-23T00:50:55;97864.06;;;10.88;100.00
9077;BME280;4574;51.072;17.174;2024-02-23T00:53:23;97865.69;;;10.89;100.00
9077;BME280;4574;51.072;17.174;2024-02-23T00:55:53;97866.91;;;10.93;100.00
9077;BME280;4574;51.072;17.174;2024-02-23T00:58:22;97870.97;;;10.89;100.00
9077;BME280;4574;51.072;17.174;2024-02-23T01:00:51;97871.59;;;10.91;100.00
9077;BME280;4574;51.072;17.174;2024-02-23T01:03:19;97857.75;;;10.89;100.00
9077;BME280;4574;51.072;17.174;2024-02-23T01:05:48;97856.31;;;10.93;100.00
9077;BME280;4574;51.072;17.174;2024-02-23T01:08:16;97859.38;;;10.90;100.00
9077;BME280;4574;51.072;17.174;2024-02-23T01:10:46;97852.44;;;10.89;100.00
9077;BME280;4574;51.072;17.174;2024-02-23T01:13:16;97846.13;;;10.83;100.00
9077;BME280;4574;51.072;17.174;2024-02-23T01:15:45;97844.31;;;10.84;100.00
9077;BME280;4574;51.072;17.174;2024-02-23T01:18:14;97833.72;;;10.84;100.00
9077;BME280;4574;51.072;17.174;2024-02-23T01:20:42;97830.66;;;10.80;100.00
9077;BME280;4574;51.072;17.174;2024-02-23T01:23:11;97822.97;;;10.79;100.00
9077;BME280;4574;51.072;17.174;2024-02-23T01:25:39;97834.31;;;10.92;100.00
9077;BME280;4574;51.072;17.174;2024-02-23T01:28:08;97832.09;;;10.96;100.00
9077;BME280;4574;51.072;17.174;2024-02-23T01:30:38;97842.03;;;11.07;100.00
9077;BME280;4574;51.072;17.174;2024-02-23T01:33:07;97858.94;;;11.06;100.00
9077;BME280;4574;51.072;17.174;2024-02-23T01:35:35;97838.97;;;11.10;100.00
9077;BME280;4574;51.072;17.174;2024-02-23T01:38:04;97849.16;;;11.13;100.00
9077;BME280;4574;51.072;17.174;2024-02-23T01:40:33;97837.53;;;11.14;100.00
9077;BME280;4574;51.072;17.174;2024-02-23T01:43:03;97831.03;;;11.10;100.00
9077;BME280;4574;51.072;17.174;2024-02-23T01:45:31;97846.09;;;11.22;100.00
9077;BME280;4574;51.072;17.174;2024-02-23T01:48:02;97841.38;;;11.24;100.00
9077;BME280;4574;51.072;17.174;2024-02-23T01:50:31;97836.69;;;11.26;100.00
9077;BME280;4574;51.072;17.174;2024-02-23T01:53:00;97842.59;;;11.28;100.00
9077;BME280;4574;51.072;17.174;2024-02-23T01:55:31;97834.25;;;11.25;100.00
9077;BME280;4574;51.072;17.174;2024-02-23T01:58:03;97829.97;;;11.24;100.00
9077;BME280;4574;51.072;17.174;2024-02-23T02:00:35;97835.06;;;11.25;100.00
9077;BME280;4574;51.072;17.174;2024-02-23T02:03:05;97842.97;;;11.32;100.00
9077;BME280;4574;51.072;17.174;2024-02-23T02:05:38;97839.53;;;11.25;100.00
9077;BME280;4574;51.072;17.174;2024-02-23T02:08:07;97823.28;;;11.15;100.00
9077;BME280;4574;51.072;17.174;2024-02-23T02:10:35;97809.84;;;11.16;100.00
9077;BME280;4574;51.072;17.174;2024-02-23T02:13:04;97805.16;;;11.12;100.00
9077;BME280;4574;51.072;17.174;2024-02-23T02:15:33;97816.78;;;11.11;100.00
9077;BME280;4574;51.072;17.174;2024-02-23T02:18:02;97809.06;;;11.03;100.00
9077;BME280;4574;51.072;17.174;2024-02-23T02:20:33;97800.09;;;11.10;100.00
9077;BME280;4574;51.072;17.174;2024-02-23T02:23:02;97825.53;;;11.05;100.00
9077;BME280;4574;51.072;17.174;2024-02-23T02:25:30;97826.97;;;11.07;100.00
9077;BME280;4574;51.072;17.174;2024-02-23T02:27:59;97840.81;;;11.03;100.00
9077;BME280;4574;51.072;17.174;2024-02-23T02:30:28;97848.34;;;11.06;100.00
9077;BME280;4574;51.072;17.174;2024-02-23T02:32:56;97850.19;;;11.05;100.00
9077;BME280;4574;51.072;17.174;2024-02-23T02:35:25;97855.50;;;10.99;100.00
9077;BME280;4574;51.072;17.174;2024-02-23T02:37:55;97858.34;;;11.04;100.00
9077;BME280;4574;51.072;17.174;2024-02-23T02:40:23;97856.69;;;11.03;100.00
9077;BME280;4574;51.072;17.174;2024-02-23T02:42:52;97859.34;;;11.03;100.00
9077;BME280;4574;51.072;17.174;2024-02-23T02:45:21;97857.72;;;11.02;100.00
9077;BME280;4574;51.072;17.174;2024-02-23T02:47:50;97858.94;;;10.99;100.00
9077;BME280;4574;51.072;17.174;2024-02-23T02:50:18;97864.44;;;10.98;100.00
9077;BME280;4574;51.072;17.174;2024-02-23T02:52:47;97855.72;;;10.91;100.00
9077;BME280;4574;51.072;17.174;2024-02-23T02:55:17;97863.22;;;11.00;100.00
9077;BME280;4574;51.072;17.174;2024-02-23T02:57:45;97852.25;;;10.97;100.00
9077;BME280;4574;51.072;17.174;2024-02-23T03:00:14;97855.06;;;10.95;100.00
9077;BME280;4574;51.072;17.174;2024-02-23T03:02:43;97864.22;;;10.99;100.00
9077;BME280;4574;51.072;17.174;2024-02-23T03:05:11;97855.69;;;10.97;100.00
9077;BME280;4574;51.072;17.174;2024-02-23T03:07:40;97861.81;;;10.98;100.00
9077;BME280;4574;51.072;17.174;2024-02-23T03:10:09;97850.59;;;10.96;100.00
9077;BME280;4574;51.072;17.174;2024-02-23T03:12:39;97859.16;;;10.98;100.00
9077;BME280;4574;51.072;17.174;2024-02-23T03:15:08;97856.50;;;10.98;100.00
9077;BME280;4574;51.072;17.174;2024-02-23T03:17:37;97865.66;;;10.95;100.00
9077;BME280;4574;51.072;17.174;2024-02-23T03:20:06;97888.28;;;10.98;100.00
9077;BME280;4574;51.072;17.174;2024-02-23T03:22:38;97894.38;;;10.98;100.00
9077;BME280;4574;51.072;17.174;2024-02-23T03:25:07;97884.00;;;10.97;100.00
9077;BME280;4574;51.072;17.174;2024-02-23T03:27:37;97892.94;;;11.02;100.00
9077;BME280;4574;51.072;17.174;2024-02-23T03:30:07;97889.06;;;10.98;100.00
9077;BME280;4574;51.072;17.174;2024-02-23T03:32:36;97882.38;;;10.96;100.00
9077;BME280;4574;51.072;17.174;2024-02-23T03:35:07;97888.88;;;11.00;100.00
9077;BME280;4574;51.072;17.174;2024-02-23T03:37:36;97887.66;;;10.96;100.00
9077;BME280;4574;51.072;17.174;2024-02-23T03:40:06;97872.00;;;10.88;100.00
9077;BME280;4574;51.072;17.174;2024-02-23T03:42:34;97859.97;;;10.92;100.00
9077;BME280;4574;51.072;17.174;2024-02-23T03:45:04;97898.25;;;10.96;100.00
9077;BME280;4574;51.072;17.174;2024-02-23T03:47:34;97936.94;;;10.97;100.00
9077;BME280;4574;51.072;17.174;2024-02-23T03:50:04;97946.31;;;10.93;100.00
9077;BME280;4574;51.072;17.174;2024-02-23T03:52:33;97952.81;;;10.97;100.00
9077;BME280;4574;51.072;17.174;2024-02-23T03:55:01;97952.81;;;10.97;100.00
9077;BME280;4574;51.072;17.174;2024-02-23T03:57:31;97951.19;;;10.96;100.00
9077;BME280;4574;51.072;17.174;2024-02-23T04:00:00;97974.81;;;11.10;100.00
9077;BME280;4574;51.072;17.174;2024-02-23T04:02:29;97979.28;;;11.16;100.00
9077;BME280;4574;51.072;17.174;2024-02-23T04:04:59;97984.97;;;11.20;100.00
9077;BME280;4574;51.072;17.174;2024-02-23T04:07:28;97987.63;;;11.20;100.00
9077;BME280;4574;51.072;17.174;2024-02-23T04:09:57;98001.69;;;11.27;100.00
9077;BME280;4574;51.072;17.174;2024-02-23T04:12:25;97994.75;;;11.26;100.00
9077;BME280;4574;51.072;17.174;2024-02-23T04:14:54;97995.19;;;11.29;100.00
9077;BME280;4574;51.072;17.174;2024-02-23T04:17:22;97998.63;;;11.30;100.00
9077;BME280;4574;51.072;17.174;2024-02-23T04:19:51;98011.03;;;11.36;100.00
9077;BME280;4574;51.072;17.174;2024-02-23T04:22:21;98013.50;;;11.31;100.00
9077;BME280;4574;51.072;17.174;2024-02-23T04:24:49;98010.22;;;11.29;100.00
9077;BME280;4574;51.072;17.174;2024-02-23T04:27:17;98011.69;;;11.31;100.00
9077;BME280;4574;51.072;17.174;2024-02-23T04:29:45;98010.84;;;11.31;100.00
9077;BME280;4574;51.072;17.174;2024-02-23T04:32:14;97995.56;;;11.33;100.00
9077;BME280;4574;51.072;17.174;2024-02-23T04:34:43;97994.34;;;11.35;100.00
9077;BME280;4574;51.072;17.174;2024-02-23T04:37:11;98002.50;;;11.40;100.00
9077;BME280;4574;51.072;17.174;2024-02-23T04:39:43;98011.84;;;11.43;100.00
9077;BME280;4574;51.072;17.174;2024-02-23T04:42:12;98016.97;;;11.44;100.00
9077;BME280;4574;51.072;17.174;2024-02-23T04:44:41;98005.72;;;11.49;100.00
9077;BME280;4574;51.072;17.174;2024-02-23T04:47:10;98014.69;;;11.54;100.00
9077;BME280;4574;51.072;17.174;2024-02-23T04:49:38;98010.22;;;11.55;100.00
9077;BME280;4574;51.072;17.174;2024-02-23T04:52:07;98019.19;;;11.54;100.00
9077;BME280;4574;51.072;17.174;2024-02-23T04:54:36;98026.75;;;11.57;100.00
9077;BME280;4574;51.072;17.174;2024-02-23T04:57:06;98027.56;;;11.57;100.00
9077;BME280;4574;51.072;17.174;2024-02-23T04:59:34;98029.78;;;11.54;100.00
9077;BME280;4574;51.072;17.174;2024-02-23T05:02:03;98020.59;;;11.50;100.00
9077;BME280;4574;51.072;17.174;2024-02-23T05:04:32;98028.38;;;11.51;100.00
9077;BME280;4574;51.072;17.174;2024-02-23T05:07:00;98033.44;;;11.53;100.00
9077;BME280;4574;51.072;17.174;2024-02-23T05:09:29;98038.34;;;11.49;100.00
9077;BME280;4574;51.072;17.174;2024-02-23T05:11:58;98042.03;;;11.55;100.00
9077;BME280;4574;51.072;17.174;2024-02-23T05:14:29;98048.31;;;11.54;100.00
9077;BME280;4574;51.072;17.174;2024-02-23T05:16:57;98063.00;;;11.50;100.00
9077;BME280;4574;51.072;17.174;2024-02-23T05:19:26;98059.53;;;11.49;100.00
9077;BME280;4574;51.072;17.174;2024-02-23T05:21:55;98059.13;;;11.46;100.00
9077;BME280;4574;51.072;17.174;2024-02-23T05:24:23;98076.25;;;11.50;100.00
9077;BME280;4574;51.072;17.174;2024-02-23T05:26:52;98068.09;;;11.45;100.00
9077;BME280;4574;51.072;17.174;2024-02-23T05:29:21;98074.41;;;11.44;100.00
9077;BME280;4574;51.072;17.174;2024-02-23T05:31:52;98072.16;;;11.41;100.00
9077;BME280;4574;51.072;17.174;2024-02-23T05:34:21;98076.66;;;11.34;100.00
9077;BME280;4574;51.072;17.174;2024-02-23T05:36:50;98088.88;;;11.35;100.00
9077;BME280;4574;51.072;17.174;2024-02-23T05:39:19;98088.69;;;11.36;100.00
9077;BME280;4574;51.072;17.174;2024-02-23T05:41:47;98102.75;;;11.30;100.00
9077;BME280;4574;51.072;17.174;2024-02-23T05:44:16;98118.19;;;11.27;100.00
9077;BME280;4574;51.072;17.174;2024-02-23T05:46:45;98112.91;;;11.27;100.00
9077;BME280;4574;51.072;17.174;2024-02-23T05:49:15;98128.78;;;11.27;100.00
9077;BME280;4574;51.072;17.174;2024-02-23T05:51:43;98125.97;;;11.28;100.00
9077;BME280;4574;51.072;17.174;2024-02-23T05:54:13;98129.22;;;11.30;100.00
9077;BME280;4574;51.072;17.174;2024-02-23T05:56:43;98124.53;;;11.32;100.00
9077;BME280;4574;51.072;17.174;2024-02-23T05:59:12;98128.22;;;11.31;100.00
9077;BME280;4574;51.072;17.174;2024-02-23T06:01:41;98141.03;;;11.28;100.00
9077;BME280;4574;51.072;17.174;2024-02-23T06:04:08;98133.25;;;11.20;100.00
9077;BME280;4574;51.072;17.174;2024-02-23T06:06:41;98142.03;;;11.20;100.00
9077;BME280;4574;51.072;17.174;2024-02-23T06:09:11;98149.97;;;11.20;100.00
9077;BME280;4574;51.072;17.174;2024-02-23T06:11:40;98153.25;;;11.22;100.00
9077;BME280;4574;51.072;17.174;2024-02-23T06:14:09;98171.38;;;11.25;100.00
9077;BME280;4574;51.072;17.174;2024-02-23T06:16:38;98174.84;;;11.26;100.00
9077;BME280;4574;51.072;17.174;2024-02-23T06:19:08;98185.81;;;11.23;100.00
9077;BME280;4574;51.072;17.174;2024-02-23T06:21:39;98184.19;;;11.22;100.00
9077;BME280;4574;51.072;17.174;2024-02-23T06:24:08;98186.44;;;11.25;100.00
9077;BME280;4574;51.072;17.174;2024-02-23T06:26:37;98198.66;;;11.26;100.00
9077;BME280;4574;51.072;17.174;2024-02-23T06:29:06;98191.97;;;11.23;100.00
9077;BME280;4574;51.072;17.174;2024-02-23T06:31:38;98196.03;;;11.26;100.00
9077;BME280;4574;51.072;17.174;2024-02-23T06:34:07;98195.63;;;11.22;100.00
9077;BME280;4574;51.072;17.174;2024-02-23T06:36:36;98197.44;;;11.22;100.00
9077;BME280;4574;51.072;17.174;2024-02-23T06:39:06;98209.88;;;11.28;100.00
9077;BME280;4574;51.072;17.174;2024-02-23T06:41:35;98209.25;;;11.26;100.00
9077;BME280;4574;51.072;17.174;2024-02-23T06:44:06;98224.53;;;11.24;100.00
9077;BME280;4574;51.072;17.174;2024-02-23T06:46:34;98217.59;;;11.23;100.00
9077;BME280;4574;51.072;17.174;2024-02-23T06:49:03;98235.13;;;11.24;100.00
9077;BME280;4574;51.072;17.174;2024-02-23T06:51:32;98233.50;;;11.23;100.00
9077;BME280;4574;51.072;17.174;2024-02-23T06:54:00;98231.06;;;11.21;100.00
9077;BME280;4574;51.072;17.174;2024-02-23T06:56:32;98213.28;;;11.09;100.00
9077;BME280;4574;51.072;17.174;2024-02-23T06:59:01;98225.31;;;11.18;100.00
9077;BME280;4574;51.072;17.174;2024-02-23T07:01:29;98238.78;;;11.16;100.00
9077;BME280;4574;51.072;17.174;2024-02-23T07:03:58;98242.84;;;11.19;100.00
9077;BME280;4574;51.072;17.174;2024-02-23T07:06:26;98239.19;;;11.20;100.00
9077;BME280;4574;51.072;17.174;2024-02-23T07:08:58;98257.94;;;11.18;100.00
9077;BME280;4574;51.072;17.174;2024-02-23T07:11:26;98250.56;;;11.14;100.00
9077;BME280;4574;51.072;17.174;2024-02-23T07:13:56;98253.84;;;11.16;100.00
9077;BME280;4574;51.072;17.174;2024-02-23T07:16:25;98264.25;;;11.17;100.00
9077;BME280;4574;51.072;17.174;2024-02-23T07:18:54;98261.16;;;11.14;100.00
9077;BME280;4574;51.072;17.174;2024-02-23T07:21:23;98266.06;;;11.17;100.00
9077;BME280;4574;51.072;17.174;2024-02-23T07:23:52;98273.22;;;11.16;100.00
9077;BME280;4574;51.072;17.174;2024-02-23T07:26:21;98275.84;;;11.16;100.00
9077;BME280;4574;51.072;17.174;2024-02-23T07:28:50;98267.88;;;11.10;100.00
9077;BME280;4574;51.072;17.174;2024-02-23T07:31:20;98274.00;;;11.17;100.00
9077;BME280;4574;51.072;17.174;2024-02-23T07:33:48;98276.66;;;11.17;100.00
9077;BME280;4574;51.072;17.174;2024-02-23T07:36:18;98271.38;;;11.17;100.00
9077;BME280;4574;51.072;17.174;2024-02-23T07:38:47;98280.75;;;11.19;100.00
9077;BME280;4574;51.072;17.174;2024-02-23T07:41:16;98283.00;;;11.22;100.00
9077;BME280;4574;51.072;17.174;2024-02-23T07:43:46;98286.47;;;11.23;100.00
9077;BME280;4574;51.072;17.174;2024-02-23T07:46:14;98284.22;;;11.20;100.00
9077;BME280;4574;51.072;17.174;2024-02-23T07:48:45;98272.16;;;11.11;100.00
9077;BME280;4574;51.072;17.174;2024-02-23T07:51:15;98291.13;;;11.21;100.00
9077;BME280;4574;51.072;17.174;2024-02-23T07:53:44;98274.78;;;11.11;100.00
9077;BME280;4574;51.072;17.174;2024-02-23T07:56:12;98282.56;;;11.19;100.00
9077;BME280;4574;51.072;17.174;2024-02-23T07:58:41;98300.75;;;11.28;100.00
9077;BME280;4574;51.072;17.174;2024-02-23T08:01:09;98301.16;;;11.25;100.00
9077;BME280;4574;51.072;17.174;2024-02-23T08:03:38;98313.78;;;11.30;100.00
9077;BME280;4574;51.072;17.174;2024-02-23T08:06:11;98310.13;;;11.31;100.00
9077;BME280;4574;51.072;17.174;2024-02-23T08:08:40;98324.19;;;11.31;100.00
9077;BME280;4574;51.072;17.174;2024-02-23T08:11:09;98314.19;;;11.27;100.00
9077;BME280;4574;51.072;17.174;2024-02-23T08:13:37;98312.31;;;11.21;100.00
9077;BME280;4574;51.072;17.174;2024-02-23T08:16:06;98336.44;;;11.32;100.00
9077;BME280;4574;51.072;17.174;2024-02-23T08:18:35;98348.06;;;11.38;100.00
9077;BME280;4574;51.072;17.174;2024-02-23T08:21:04;98339.47;;;11.36;100.00
9077;BME280;4574;51.072;17.174;2024-02-23T08:23:34;98345.22;;;11.46;100.00
9077;BME280;4574;51.072;17.174;2024-02-23T08:26:03;98351.38;;;11.46;100.00
9077;BME280;4574;51.072;17.174;2024-02-23T08:28:32;98338.13;;;11.46;100.00
9077;BME280;4574;51.072;17.174;2024-02-23T08:31:00;98341.16;;;11.50;100.00
9077;BME280;4574;51.072;17.174;2024-02-23T08:33:29;98332.41;;;11.49;100.00
9077;BME280;4574;51.072;17.174;2024-02-23T08:35:57;98331.38;;;11.44;100.00
9077;BME280;4574;51.072;17.174;2024-02-23T08:38:26;98357.53;;;11.60;100.00
9077;BME280;4574;51.072;17.174;2024-02-23T08:40:56;98351.84;;;11.63;100.00
9077;BME280;4574;51.072;17.174;2024-02-23T08:43:25;98358.38;;;11.67;100.00
9077;BME280;4574;51.072;17.174;2024-02-23T08:45:54;98366.56;;;11.72;100.00
9077;BME280;4574;51.072;17.174;2024-02-23T08:48:27;98369.44;;;11.77;100.00
9077;BME280;4574;51.072;17.174;2024-02-23T08:50:56;98371.69;;;11.80;100.00
9077;BME280;4574;51.072;17.174;2024-02-23T08:53:25;98392.09;;;11.86;100.00
9077;BME280;4574;51.072;17.174;2024-02-23T08:55:53;98394.34;;;11.89;100.00
9077;BME280;4574;51.072;17.174;2024-02-23T08:58:24;98390.69;;;11.90;100.00
9077;BME280;4574;51.072;17.174;2024-02-23T09:00:52;98402.56;;;11.94;100.00
9077;BME280;4574;51.072;17.174;2024-02-23T09:03:21;98424.00;;;11.99;100.00
9077;BME280;4574;51.072;17.174;2024-02-23T09:05:49;98431.47;;;11.82;100.00
9077;BME280;4574;51.072;17.174;2024-02-23T09:08:18;98438.69;;;11.61;100.00
9077;BME280;4574;51.072;17.174;2024-02-23T09:10:47;98447.97;;;11.50;100.00
9077;BME280;4574;51.072;17.174;2024-02-23T09:13:15;98450.97;;;11.41;100.00
9077;BME280;4574;51.072;17.174;2024-02-23T09:15:46;98445.66;;;11.34;100.00
9077;BME280;4574;51.072;17.174;2024-02-23T09:18:15;98444.19;;;11.32;100.00
9077;BME280;4574;51.072;17.174;2024-02-23T09:20:43;98457.19;;;11.27;100.00
9077;BME280;4574;51.072;17.174;2024-02-23T09:23:12;98467.78;;;11.27;100.00
9077;BME280;4574;51.072;17.174;2024-02-23T09:25:41;98464.53;;;11.25;100.00
9077;BME280;4574;51.072;17.174;2024-02-23T09:28:10;98471.84;;;11.23;100.00
9077;BME280;4574;51.072;17.174;2024-02-23T09:30:39;98471.03;;;11.22;100.00
9077;BME280;4574;51.072;17.174;2024-02-23T09:33:10;98478.38;;;11.27;100.00
9077;BME280;4574;51.072;17.174;2024-02-23T09:35:38;98487.34;;;11.26;100.00
9077;BME280;4574;51.072;17.174;2024-02-23T09:38:07;98481.88;;;11.27;100.00
9077;BME280;4574;51.072;17.174;2024-02-23T09:40:35;98480.84;;;11.28;100.00
9077;BME280;4574;51.072;17.174;2024-02-23T09:43:07;98483.28;;;11.30;100.00
9077;BME280;4574;51.072;17.174;2024-02-23T09:45:38;98491.88;;;11.32;100.00
9077;BME280;4574;51.072;17.174;2024-02-23T09:48:07;98488.41;;;11.31;100.00
9077;BME280;4574;51.072;17.174;2024-02-23T09:50:40;98498.41;;;11.36;100.00
9077;BME280;4574;51.072;17.174;2024-02-23T09:53:11;98500.69;;;11.39;100.00
9077;BME280;4574;51.072;17.174;2024-02-23T09:55:42;98502.94;;;11.42;100.00
9077;BME280;4574;51.072;17.174;2024-02-23T09:58:13;98503.56;;;11.44;100.00
9077;BME280;4574;51.072;17.174;2024-02-23T10:00:44;98509.50;;;11.46;100.00
9077;BME280;4574;51.072;17.174;2024-02-23T10:03:13;98509.50;;;11.46;100.00
9077;BME280;4574;51.072;17.174;2024-02-23T10:05:43;98504.19;;;11.46;100.00
9077;BME280;4574;51.072;17.174;2024-02-23T10:08:13;98520.31;;;11.51;100.00
9077;BME280;4574;51.072;17.174;2024-02-23T10:10:42;98520.16;;;11.52;100.00
9077;BME280;4574;51.072;17.174;2024-02-23T10:13:13;98527.88;;;11.54;100.00
9077;BME280;4574;51.072;17.174;2024-02-23T10:15:46;98531.03;;;11.57;89.31
9077;BME280;4574;51.072;17.174;2024-02-23T10:18:37;98537.13;;;11.58;88.25
9077;BME280;4574;51.072;17.174;2024-02-23T10:21:07;98538.59;;;11.60;88.36
9077;BME280;4574;51.072;17.174;2024-02-23T10:23:36;98550.59;;;11.63;87.87
9077;BME280;4574;51.072;17.174;2024-02-23T10:26:05;98549.97;;;11.61;87.71
9077;BME280;4574;51.072;17.174;2024-02-23T10:28:34;98552.00;;;11.59;83.29
9077;BME280;4574;51.072;17.174;2024-02-23T10:31:04;98556.28;;;11.60;84.61
9077;BME280;4574;51.072;17.174;2024-02-23T10:33:38;98553.22;;;11.56;82.72
9077;BME280;4574;51.072;17.174;2024-02-23T10:36:11;98551.13;;;11.52;83.64
9077;BME280;4574;51.072;17.174;2024-02-23T10:38:40;98564.25;;;11.60;83.15
9077;BME280;4574;51.072;17.174;2024-02-23T10:41:12;98563.84;;;11.63;85.71
9077;BME280;4574;51.072;17.174;2024-02-23T10:43:44;98557.53;;;11.64;86.45
9077;BME280;4574;51.072;17.174;2024-02-23T10:46:14;98563.06;;;11.62;89.10
9077;BME280;4574;51.072;17.174;2024-02-23T10:48:44;98567.53;;;11.62;87.93
9077;BME280;4574;51.072;17.174;2024-02-23T10:51:14;98577.88;;;11.57;86.64
9077;BME280;4574;51.072;17.174;2024-02-23T10:53:48;98575.72;;;11.46;86.77
9077;BME280;4574;51.072;17.174;2024-02-23T10:56:17;98580.59;;;11.42;86.57
9077;BME280;4574;51.072;17.174;2024-02-23T10:58:46;98577.50;;;11.39;90.15
9077;BME280;4574;51.072;17.174;2024-02-23T11:01:15;98577.00;;;11.29;92.15
9077;BME280;4574;51.072;17.174;2024-02-23T11:03:46;98553.06;;;11.16;91.94
9077;BME280;4574;51.072;17.174;2024-02-23T11:06:19;98568.44;;;11.27;92.68
9077;BME280;4574;51.072;17.174;2024-02-23T11:08:49;98563.00;;;11.35;92.91
9077;BME280;4574;51.072;17.174;2024-02-23T11:11:19;98569.00;;;11.43;94.85
9077;BME280;4574;51.072;17.174;2024-02-23T11:13:48;98579.25;;;11.53;95.59
9077;BME280;4574;51.072;17.174;2024-02-23T11:16:22;98579.75;;;11.63;94.14
9077;BME280;4574;51.072;17.174;2024-02-23T11:19:04;98579.19;;;11.67;93.73
9077;BME280;4574;51.072;17.174;2024-02-23T11:21:37;98574.31;;;11.71;92.75
9077;BME280;4574;51.072;17.174;2024-02-23T11:24:15;98569.25;;;11.76;92.84
9077;BME280;4574;51.072;17.174;2024-02-23T11:26:44;98564.63;;;11.84;94.40
9077;BME280;4574;51.072;17.174;2024-02-23T11:29:16;98556.28;;;11.87;93.56
9077;BME280;4574;51.072;17.174;2024-02-23T11:31:46;98548.16;;;11.95;92.89
9077;BME280;4574;51.072;17.174;2024-02-23T11:34:22;98549.03;;;12.02;93.75
9077;BME280;4574;51.072;17.174;2024-02-23T11:36:53;98545.41;;;12.09;93.75
9077;BME280;4574;51.072;17.174;2024-02-23T11:39:23;98548.69;;;12.11;92.69
9077;BME280;4574;51.072;17.174;2024-02-23T11:41:51;98549.91;;;12.15;91.98
9077;BME280;4574;51.072;17.174;2024-02-23T11:44:20;98545.66;;;12.21;92.18
9077;BME280;4574;51.072;17.174;2024-02-23T11:46:48;98541.78;;;12.23;89.90
9077;BME280;4574;51.072;17.174;2024-02-23T11:49:17;98548.75;;;12.24;89.46
9077;BME280;4574;51.072;17.174;2024-02-23T11:51:46;98545.06;;;12.25;90.24
9077;BME280;4574;51.072;17.174;2024-02-23T11:54:16;98545.41;;;12.16;87.76
9077;BME280;4574;51.072;17.174;2024-02-23T11:56:45;98547.44;;;12.14;86.89
9077;BME280;4574;51.072;17.174;2024-02-23T11:59:14;98552.97;;;12.12;87.76
9077;BME280;4574;51.072;17.174;2024-02-23T12:01:43;98553.38;;;12.09;87.09
9077;BME280;4574;51.072;17.174;2024-02-23T12:04:11;98566.22;;;12.12;87.58
9077;BME280;4574;51.072;17.174;2024-02-23T12:06:40;98574.81;;;12.14;88.26
9077;BME280;4574;51.072;17.174;2024-02-23T12:09:10;98572.34;;;12.13;88.25
9077;BME280;4574;51.072;17.174;2024-02-23T12:11:41;98580.91;;;12.15;87.38
9077;BME280;4574;51.072;17.174;2024-02-23T12:14:10;98589.09;;;12.13;86.87
9077;BME280;4574;51.072;17.174;2024-02-23T12:16:40;98596.41;;;12.11;87.69
9077;BME280;4574;51.072;17.174;2024-02-23T12:19:08;98604.94;;;12.01;87.61
9077;BME280;4574;51.072;17.174;2024-02-23T12:21:38;98608.38;;;12.01;89.07
9077;BME280;4574;51.072;17.174;2024-02-23T12:24:07;98611.47;;;12.04;88.89
9077;BME280;4574;51.072;17.174;2024-02-23T12:26:35;98599.94;;;11.91;89.26
9077;BME280;4574;51.072;17.174;2024-02-23T12:29:06;98613.91;;;12.00;89.55
9077;BME280;4574;51.072;17.174;2024-02-23T12:31:34;98616.09;;;11.96;89.40
9077;BME280;4574;51.072;17.174;2024-02-23T12:34:03;98624.06;;;11.96;89.30
9077;BME280;4574;51.072;17.174;2024-02-23T12:36:32;98626.91;;;11.95;89.90
9077;BME280;4574;51.072;17.174;2024-02-23T12:39:03;98624.25;;;11.95;90.59
9077;BME280;4574;51.072;17.174;2024-02-23T12:41:32;98633.03;;;11.95;90.43
9077;BME280;4574;51.072;17.174;2024-02-23T12:44:00;98615.81;;;11.85;90.41
9077;BME280;4574;51.072;17.174;2024-02-23T12:46:31;98632.41;;;11.93;90.57
9077;BME280;4574;51.072;17.174;2024-02-23T12:48:59;98634.59;;;11.90;89.83
9077;BME280;4574;51.072;17.174;2024-02-23T12:51:28;98639.91;;;11.90;90.29
9077;BME280;4574;51.072;17.174;2024-02-23T12:53:56;98645.47;;;11.95;91.67
9077;BME280;4574;51.072;17.174;2024-02-23T12:56:25;98640.81;;;11.97;92.01
9077;BME280;4574;51.072;17.174;2024-02-23T12:58:54;98639.56;;;11.99;93.86
9077;BME280;4574;51.072;17.174;2024-02-23T13:01:23;98643.31;;;12.04;95.26
9077;BME280;4574;51.072;17.174;2024-02-23T13:03:53;98638.25;;;11.89;94.10
9077;BME280;4574;51.072;17.174;2024-02-23T13:06:21;98661.16;;;11.69;95.25
9077;BME280;4574;51.072;17.174;2024-02-23T13:08:50;98654.59;;;11.65;97.33
9077;BME280;4574;51.072;17.174;2024-02-23T13:11:19;98644.63;;;11.67;98.64
9077;BME280;4574;51.072;17.174;2024-02-23T13:13:48;98654.59;;;11.65;99.22